sensor_id;sensor_type;location;lat;lon;timestamp;pressure;altitude;pressure_sealevel;temperature;humidity
1926;BME280;964;42.606;23.588;2023-02-19T00:01:47;94780.88;;;28.50;20.13
1926;BME280;964;42.606;23.588;2023-02-19T00:04:16;94783.38;;;27.93;20.27
1926;BME280;964;42.606;23.588;2023-02-19T00:06:43;94785.63;;;27.67;20.42
1926;BME280;964;42.606;23.588;2023-02-19T00:09:12;94798.38;;;27.80;20.42
1926;BME280;964;42.606;23.588;2023-02-19T00:11:40;94792.28;;;28.30;19.97
1926;BME280;964;42.606;23.588;2023-02-19T00:14:10;94785.84;;;28.69;19.41
1926;BME280;964;42.606;23.588;2023-02-19T00:16:39;94787.28;;;28.89;19.49
1926;BME280;964;42.606;23.588;2023-02-19T00:19:10;94775.69;;;29.03;19.32
1926;BME280;964;42.606;23.588;2023-02-19T00:21:37;94788.50;;;29.44;19.30
1926;BME280;964;42.606;23.588;2023-02-19T00:24:06;94783.22;;;29.08;19.44
1926;BME280;964;42.606;23.588;2023-02-19T00:26:33;94790.88;;;28.95;19.85
1926;BME280;964;42.606;23.588;2023-02-19T00:29:00;94783.16;;;28.42;20.29
1926;BME280;964;42.606;23.588;2023-02-19T00:31:30;94785.50;;;27.89;20.76
1926;BME280;964;42.606;23.588;2023-02-19T00:33:58;94787.47;;;27.61;21.18
1926;BME280;964;42.606;23.588;2023-02-19T00:36:26;94784.81;;;25.64;22.50
1926;BME280;964;42.606;23.588;2023-02-19T00:38:53;94787.59;;;25.95;22.50
1926;BME280;964;42.606;23.588;2023-02-19T00:41:21;94768.38;;;27.52;21.13
1926;BME280;964;42.606;23.588;2023-02-19T00:43:50;94769.00;;;27.74;20.70
1926;BME280;964;42.606;23.588;2023-02-19T00:46:18;94769.22;;;27.22;21.00
1926;BME280;964;42.606;23.588;2023-02-19T00:48:47;94777.00;;;27.69;20.52
1926;BME280;964;42.606;23.588;2023-02-19T00:51:14;94761.31;;;26.97;20.86
1926;BME280;964;42.606;23.588;2023-02-19T00:53:41;94775.50;;;26.92;20.95
1926;BME280;964;42.606;23.588;2023-02-19T00:56:08;94755.66;;;27.76;20.37
1926;BME280;964;42.606;23.588;2023-02-19T00:58:35;94747.47;;;28.13;19.86
1926;BME280;964;42.606;23.588;2023-02-19T01:01:03;94739.88;;;28.35;19.99
1926;BME280;964;42.606;23.588;2023-02-19T01:03:31;94743.41;;;27.99;20.09
1926;BME280;964;42.606;23.588;2023-02-19T01:05:59;94744.09;;;28.45;19.76
1926;BME280;964;42.606;23.588;2023-02-19T01:08:26;94747.97;;;28.62;19.56
1926;BME280;964;42.606;23.588;2023-02-19T01:10:55;94750.38;;;28.18;20.17
1926;BME280;964;42.606;23.588;2023-02-19T01:13:22;94738.41;;;27.98;19.85
1926;BME280;964;42.606;23.588;2023-02-19T01:15:49;94747.19;;;27.93;19.80
1926;BME280;964;42.606;23.588;2023-02-19T01:18:16;94738.09;;;27.96;19.79
1926;BME280;964;42.606;23.588;2023-02-19T01:20:43;94724.63;;;27.19;20.52
1926;BME280;964;42.606;23.588;2023-02-19T01:23:13;94737.03;;;28.02;19.81
1926;BME280;964;42.606;23.588;2023-02-19T01:25:40;94726.53;;;28.37;19.57
1926;BME280;964;42.606;23.588;2023-02-19T01:28:09;94718.75;;;28.12;19.67
1926;BME280;964;42.606;23.588;2023-02-19T01:30:37;94725.50;;;28.77;19.18
1926;BME280;964;42.606;23.588;2023-02-19T01:33:04;94731.00;;;28.58;19.35
1926;BME280;964;42.606;23.588;2023-02-19T01:35:31;94733.81;;;28.31;19.58
1926;BME280;964;42.606;23.588;2023-02-19T01:37:58;94739.75;;;28.71;19.47
1926;BME280;964;42.606;23.588;2023-02-19T01:40:26;94736.91;;;28.99;19.16
1926;BME280;964;42.606;23.588;2023-02-19T01:42:53;94750.06;;;27.98;19.70
1926;BME280;964;42.606;23.588;2023-02-19T01:45:28;94743.56;;;28.05;19.71
1926;BME280;964;42.606;23.588;2023-02-19T01:48:04;94752.81;;;28.58;19.51
1926;BME280;964;42.606;23.588;2023-02-19T01:50:36;94767.44;;;28.28;19.64
1926;BME280;964;42.606;23.588;2023-02-19T01:53:06;94780.06;;;28.07;19.89
1926;BME280;964;42.606;23.588;2023-02-19T01:55:37;94794.28;;;27.08;20.47
1926;BME280;964;42.606;23.588;2023-02-19T01:58:05;94792.97;;;27.40;20.37
1926;BME280;964;42.606;23.588;2023-02-19T02:00:35;94792.59;;;27.59;20.47
1926;BME280;964;42.606;23.588;2023-02-19T02:03:03;94808.59;;;26.59;21.21
1926;BME280;964;42.606;23.588;2023-02-19T02:05:49;94795.75;;;26.91;20.92
1926;BME280;964;42.606;23.588;2023-02-19T02:08:17;94799.03;;;26.86;20.94
1926;BME280;964;42.606;23.588;2023-02-19T02:11:03;94790.22;;;27.12;20.75
1926;BME280;964;42.606;23.588;2023-02-19T02:13:32;94782.00;;;27.89;19.87
1926;BME280;964;42.606;23.588;2023-02-19T02:16:07;94783.50;;;27.81;19.64
1926;BME280;964;42.606;23.588;2023-02-19T02:18:46;94777.47;;;28.04;19.83
1926;BME280;964;42.606;23.588;2023-02-19T02:21:39;94772.31;;;27.51;20.42
1926;BME280;964;42.606;23.588;2023-02-19T02:27:16;94783.88;;;26.75;20.96
1926;BME280;964;42.606;23.588;2023-02-19T02:30:17;94763.25;;;26.96;20.96
1926;BME280;964;42.606;23.588;2023-02-19T02:32:53;94780.94;;;26.92;21.08
1926;BME280;964;42.606;23.588;2023-02-19T02:35:25;94771.59;;;26.71;21.24
1926;BME280;964;42.606;23.588;2023-02-19T02:37:58;94757.50;;;27.89;20.60
1926;BME280;964;42.606;23.588;2023-02-19T02:40:26;94766.09;;;28.05;20.40
1926;BME280;964;42.606;23.588;2023-02-19T02:42:56;94760.78;;;28.20;20.59
1926;BME280;964;42.606;23.588;2023-02-19T02:45:27;94760.41;;;28.54;20.08
1926;BME280;964;42.606;23.588;2023-02-19T02:48:01;94771.84;;;27.98;20.54
1926;BME280;964;42.606;23.588;2023-02-19T02:50:33;94772.03;;;27.86;20.73
1926;BME280;964;42.606;23.588;2023-02-19T02:53:08;94772.28;;;26.53;22.13
1926;BME280;964;42.606;23.588;2023-02-19T02:55:54;94762.88;;;27.16;21.80
1926;BME280;964;42.606;23.588;2023-02-19T02:58:23;94764.53;;;26.73;21.81
1926;BME280;964;42.606;23.588;2023-02-19T03:00:55;94754.50;;;27.68;21.05
1926;BME280;964;42.606;23.588;2023-02-19T03:03:56;94756.25;;;27.99;20.65
1926;BME280;964;42.606;23.588;2023-02-19T03:06:27;94757.31;;;28.80;19.97
1926;BME280;964;42.606;23.588;2023-02-19T03:08:58;94759.59;;;28.81;19.90
1926;BME280;964;42.606;23.588;2023-02-19T03:11:27;94772.41;;;28.90;19.73
1926;BME280;964;42.606;23.588;2023-02-19T03:14:16;94775.16;;;29.46;19.30
1926;BME280;964;42.606;23.588;2023-02-19T03:17:07;94790.31;;;29.47;19.31
1926;BME280;964;42.606;23.588;2023-02-19T03:19:53;94788.94;;;27.99;20.70
1926;BME280;964;42.606;23.588;2023-02-19T03:22:23;94796.53;;;28.13;20.35
1926;BME280;964;42.606;23.588;2023-02-19T03:24:54;94804.63;;;28.67;19.84
1926;BME280;964;42.606;23.588;2023-02-19T03:27:41;94808.19;;;27.95;20.28
1926;BME280;964;42.606;23.588;2023-02-19T03:30:11;94813.16;;;27.51;21.05
1926;BME280;964;42.606;23.588;2023-02-19T03:32:43;94806.03;;;28.45;20.27
1926;BME280;964;42.606;23.588;2023-02-19T03:35:14;94810.47;;;27.97;20.58
1926;BME280;964;42.606;23.588;2023-02-19T03:37:45;94825.84;;;27.54;21.04
1926;BME280;964;42.606;23.588;2023-02-19T03:40:16;94821.34;;;27.88;20.50
1926;BME280;964;42.606;23.588;2023-02-19T03:42:49;94835.69;;;27.03;21.26
1926;BME280;964;42.606;23.588;2023-02-19T03:45:29;94832.16;;;26.93;21.30
1926;BME280;964;42.606;23.588;2023-02-19T03:48:04;94828.91;;;27.74;20.67
1926;BME280;964;42.606;23.588;2023-02-19T03:50:41;94828.28;;;27.52;20.76
1926;BME280;964;42.606;23.588;2023-02-19T03:53:16;94830.44;;;28.03;20.16
1926;BME280;964;42.606;23.588;2023-02-19T03:55:53;94833.66;;;27.25;20.72
1926;BME280;964;42.606;23.588;2023-02-19T03:58:28;94838.19;;;27.28;20.78
1926;BME280;964;42.606;23.588;2023-02-19T04:01:03;94821.34;;;27.69;20.44
1926;BME280;964;42.606;23.588;2023-02-19T04:03:36;94824.03;;;27.51;20.62
1926;BME280;964;42.606;23.588;2023-02-19T04:06:09;94814.97;;;27.63;20.53
1926;BME280;964;42.606;23.588;2023-02-19T04:08:39;94817.25;;;27.56;20.66
1926;BME280;964;42.606;23.588;2023-02-19T04:11:08;94817.84;;;27.11;20.94
1926;BME280;964;42.606;23.588;2023-02-19T04:13:38;94821.72;;;27.32;20.86
1926;BME280;964;42.606;23.588;2023-02-19T04:16:11;94826.41;;;27.40;20.87
1926;BME280;964;42.606;23.588;2023-02-19T04:18:42;94839.94;;;27.13;21.10
1926;BME280;964;42.606;23.588;2023-02-19T04:21:13;94838.25;;;26.75;21.70
1926;BME280;964;42.606;23.588;2023-02-19T04:23:42;94833.38;;;27.41;20.77
1926;BME280;964;42.606;23.588;2023-02-19T04:26:10;94841.66;;;28.05;20.37
1926;BME280;964;42.606;23.588;2023-02-19T04:28:38;94846.72;;;27.48;20.82
1926;BME280;964;42.606;23.588;2023-02-19T04:31:05;94849.84;;;27.28;20.85
1926;BME280;964;42.606;23.588;2023-02-19T04:33:32;94847.66;;;27.72;20.51
1926;BME280;964;42.606;23.588;2023-02-19T04:36:00;94845.88;;;27.78;20.32
1926;BME280;964;42.606;23.588;2023-02-19T04:38:27;94843.16;;;27.97;20.18
1926;BME280;964;42.606;23.588;2023-02-19T04:40:53;94843.13;;;27.88;20.38
1926;BME280;964;42.606;23.588;2023-02-19T04:43:20;94835.28;;;27.90;20.26
1926;BME280;964;42.606;23.588;2023-02-19T04:45:47;94843.72;;;27.64;20.32
1926;BME280;964;42.606;23.588;2023-02-19T04:48:14;94841.31;;;27.75;20.23
1926;BME280;964;42.606;23.588;2023-02-19T04:50:40;94840.44;;;27.20;20.89
1926;BME280;964;42.606;23.588;2023-02-19T04:53:08;94845.22;;;27.56;21.15
1926;BME280;964;42.606;23.588;2023-02-19T04:55:36;94853.66;;;26.48;21.78
1926;BME280;964;42.606;23.588;2023-02-19T04:58:03;94846.94;;;26.83;21.71
1926;BME280;964;42.606;23.588;2023-02-19T05:00:30;94855.72;;;26.65;21.81
1926;BME280;964;42.606;23.588;2023-02-19T05:02:58;94858.19;;;27.03;21.48
1926;BME280;964;42.606;23.588;2023-02-19T05:05:25;94858.06;;;27.47;21.17
1926;BME280;964;42.606;23.588;2023-02-19T05:07:51;94861.84;;;27.09;21.15
1926;BME280;964;42.606;23.588;2023-02-19T05:10:20;94867.59;;;27.51;20.82
1926;BME280;964;42.606;23.588;2023-02-19T05:12:46;94864.53;;;26.78;21.53
1926;BME280;964;42.606;23.588;2023-02-19T05:15:13;94881.19;;;26.80;21.43
1926;BME280;964;42.606;23.588;2023-02-19T05:17:39;94877.88;;;26.55;22.02
1926;BME280;964;42.606;23.588;2023-02-19T05:20:07;94877.63;;;26.93;21.64
1926;BME280;964;42.606;23.588;2023-02-19T05:22:35;94877.91;;;27.16;21.37
1926;BME280;964;42.606;23.588;2023-02-19T05:25:01;94884.72;;;26.68;22.07
1926;BME280;964;42.606;23.588;2023-02-19T05:27:30;94881.66;;;26.57;22.03
1926;BME280;964;42.606;23.588;2023-02-19T05:29:57;94886.69;;;26.90;21.78
1926;BME280;964;42.606;23.588;2023-02-19T05:32:24;94880.00;;;27.52;21.16
1926;BME280;964;42.606;23.588;2023-02-19T05:34:51;94882.22;;;27.45;21.18
1926;BME280;964;42.606;23.588;2023-02-19T05:37:17;94884.47;;;27.86;20.66
1926;BME280;964;42.606;23.588;2023-02-19T05:39:44;94884.31;;;27.90;20.92
1926;BME280;964;42.606;23.588;2023-02-19T05:42:12;94893.81;;;27.36;20.99
1926;BME280;964;42.606;23.588;2023-02-19T05:44:40;94897.38;;;28.22;20.39
1926;BME280;964;42.606;23.588;2023-02-19T05:47:07;94894.66;;;28.40;20.16
1926;BME280;964;42.606;23.588;2023-02-19T05:49:33;94894.47;;;28.53;20.37
1926;BME280;964;42.606;23.588;2023-02-19T05:52:00;94895.44;;;29.10;19.69
1926;BME280;964;42.606;23.588;2023-02-19T05:54:27;94894.78;;;28.73;20.15
1926;BME280;964;42.606;23.588;2023-02-19T05:56:54;94894.41;;;29.40;19.57
1926;BME280;964;42.606;23.588;2023-02-19T05:59:25;94886.56;;;29.33;19.67
1926;BME280;964;42.606;23.588;2023-02-19T06:01:53;94895.66;;;29.39;19.58
1926;BME280;964;42.606;23.588;2023-02-19T06:04:20;94884.31;;;28.62;19.98
1926;BME280;964;42.606;23.588;2023-02-19T06:06:48;94881.97;;;29.06;19.90
1926;BME280;964;42.606;23.588;2023-02-19T06:09:14;94881.25;;;29.39;19.42
1926;BME280;964;42.606;23.588;2023-02-19T06:11:41;94888.81;;;27.74;20.72
1926;BME280;964;42.606;23.588;2023-02-19T06:14:10;94882.50;;;28.78;20.20
1926;BME280;964;42.606;23.588;2023-02-19T06:16:37;94887.88;;;29.70;19.20
1926;BME280;964;42.606;23.588;2023-02-19T06:19:05;94876.34;;;31.95;18.01
1926;BME280;964;42.606;23.588;2023-02-19T06:21:31;94877.72;;;32.97;17.23
1926;BME280;964;42.606;23.588;2023-02-19T06:24:03;94886.34;;;33.42;17.09
1926;BME280;964;42.606;23.588;2023-02-19T06:26:30;94883.72;;;32.96;17.36
1926;BME280;964;42.606;23.588;2023-02-19T06:28:56;94885.63;;;32.90;17.40
1926;BME280;964;42.606;23.588;2023-02-19T06:31:23;94884.63;;;34.46;16.76
1926;BME280;964;42.606;23.588;2023-02-19T06:33:50;94880.47;;;34.84;16.19
1926;BME280;964;42.606;23.588;2023-02-19T06:36:19;94882.97;;;35.60;16.41
1926;BME280;964;42.606;23.588;2023-02-19T06:38:46;94902.78;;;34.86;16.58
1926;BME280;964;42.606;23.588;2023-02-19T06:41:13;94908.53;;;35.10;16.10
1926;BME280;964;42.606;23.588;2023-02-19T06:43:40;94916.63;;;34.43;16.83
1926;BME280;964;42.606;23.588;2023-02-19T06:46:07;94917.88;;;33.89;16.83
1926;BME280;964;42.606;23.588;2023-02-19T06:48:34;94924.59;;;33.82;16.62
1926;BME280;964;42.606;23.588;2023-02-19T06:51:01;94934.88;;;33.87;16.32
1926;BME280;964;42.606;23.588;2023-02-19T06:53:29;94933.34;;;33.49;16.64
1926;BME280;964;42.606;23.588;2023-02-19T06:55:57;94935.44;;;33.29;17.16
1926;BME280;964;42.606;23.588;2023-02-19T06:58:23;94929.16;;;33.91;16.46
1926;BME280;964;42.606;23.588;2023-02-19T07:00:50;94936.31;;;33.40;16.79
1926;BME280;964;42.606;23.588;2023-02-19T07:03:17;94943.16;;;32.99;17.42
1926;BME280;964;42.606;23.588;2023-02-19T07:05:44;94938.03;;;32.61;17.64
1926;BME280;964;42.606;23.588;2023-02-19T07:08:11;94925.31;;;33.40;17.03
1926;BME280;964;42.606;23.588;2023-02-19T07:10:39;94923.88;;;34.35;16.26
1926;BME280;964;42.606;23.588;2023-02-19T07:13:05;94925.03;;;34.88;15.83
1926;BME280;964;42.606;23.588;2023-02-19T07:15:32;94910.78;;;36.53;15.73
1926;BME280;964;42.606;23.588;2023-02-19T07:17:59;94904.28;;;37.86;14.32
1926;BME280;964;42.606;23.588;2023-02-19T07:20:25;94904.75;;;38.76;13.79
1926;BME280;964;42.606;23.588;2023-02-19T07:22:52;94903.34;;;39.65;13.23
1926;BME280;964;42.606;23.588;2023-02-19T07:25:19;94897.25;;;39.40;13.45
1926;BME280;964;42.606;23.588;2023-02-19T07:27:47;94894.28;;;39.19;13.40
1926;BME280;964;42.606;23.588;2023-02-19T07:30:14;94899.34;;;38.65;13.97
1926;BME280;964;42.606;23.588;2023-02-19T07:32:41;94897.50;;;39.23;13.55
1926;BME280;964;42.606;23.588;2023-02-19T07:35:10;94882.69;;;40.05;13.38
1926;BME280;964;42.606;23.588;2023-02-19T07:37:36;94874.97;;;41.19;13.13
1926;BME280;964;42.606;23.588;2023-02-19T07:40:04;94870.66;;;40.63;12.28
1926;BME280;964;42.606;23.588;2023-02-19T07:42:31;94864.25;;;41.23;12.69
1926;BME280;964;42.606;23.588;2023-02-19T07:44:59;94868.44;;;41.57;12.69
1926;BME280;964;42.606;23.588;2023-02-19T07:47:25;94872.72;;;41.58;12.68
1926;BME280;964;42.606;23.588;2023-02-19T07:49:52;94866.22;;;42.56;12.62
1926;BME280;964;42.606;23.588;2023-02-19T07:52:19;94868.25;;;41.55;12.68
1926;BME280;964;42.606;23.588;2023-02-19T07:54:45;94864.53;;;42.10;11.90
1926;BME280;964;42.606;23.588;2023-02-19T07:57:12;94868.75;;;41.75;11.90
1926;BME280;964;42.606;23.588;2023-02-19T07:59:39;94870.44;;;41.08;12.96
1926;BME280;964;42.606;23.588;2023-02-19T08:02:14;94866.88;;;40.27;13.00
1926;BME280;964;42.606;23.588;2023-02-19T08:04:59;94877.34;;;40.34;12.75
1926;BME280;964;42.606;23.588;2023-02-19T08:07:30;94875.84;;;41.34;13.04
1926;BME280;964;42.606;23.588;2023-02-19T08:09:56;94873.34;;;41.93;12.78
1926;BME280;964;42.606;23.588;2023-02-19T08:12:54;94871.00;;;40.93;12.80
1926;BME280;964;42.606;23.588;2023-02-19T08:15:38;94877.00;;;43.26;11.82
1926;BME280;964;42.606;23.588;2023-02-19T08:18:06;94865.97;;;44.74;11.25
1926;BME280;964;42.606;23.588;2023-02-19T08:20:33;94862.50;;;45.23;11.00
1926;BME280;964;42.606;23.588;2023-02-19T08:22:59;94860.78;;;44.70;11.00
1926;BME280;964;42.606;23.588;2023-02-19T08:25:26;94874.22;;;43.94;11.59
1926;BME280;964;42.606;23.588;2023-02-19T08:27:53;94881.31;;;43.87;11.17
1926;BME280;964;42.606;23.588;2023-02-19T08:30:20;94872.41;;;44.92;11.06
1926;BME280;964;42.606;23.588;2023-02-19T08:32:47;94886.66;;;42.51;11.95
1926;BME280;964;42.606;23.588;2023-02-19T08:35:15;94878.72;;;43.44;11.84
1926;BME280;964;42.606;23.588;2023-02-19T08:37:42;94885.03;;;43.98;11.42
1926;BME280;964;42.606;23.588;2023-02-19T08:40:09;94878.16;;;44.54;11.58
1926;BME280;964;42.606;23.588;2023-02-19T08:42:36;94877.25;;;44.51;11.49
1926;BME280;964;42.606;23.588;2023-02-19T08:45:03;94885.97;;;43.47;12.28
1926;BME280;964;42.606;23.588;2023-02-19T08:47:30;94877.94;;;43.36;12.24
1926;BME280;964;42.606;23.588;2023-02-19T08:49:59;94879.84;;;41.67;12.48
1926;BME280;964;42.606;23.588;2023-02-19T08:52:27;94872.31;;;42.98;11.96
1926;BME280;964;42.606;23.588;2023-02-19T08:54:54;94863.06;;;44.89;11.72
1926;BME280;964;42.606;23.588;2023-02-19T08:57:21;94856.34;;;45.91;11.19
1926;BME280;964;42.606;23.588;2023-02-19T08:59:47;94848.00;;;46.96;10.33
1926;BME280;964;42.606;23.588;2023-02-19T09:02:14;94841.50;;;47.30;10.31
1926;BME280;964;42.606;23.588;2023-02-19T09:04:41;94830.41;;;47.68;10.46
1926;BME280;964;42.606;23.588;2023-02-19T09:07:08;94828.59;;;48.79;9.88
1926;BME280;964;42.606;23.588;2023-02-19T09:09:39;94839.41;;;47.67;10.06
1926;BME280;964;42.606;23.588;2023-02-19T09:12:07;94830.97;;;46.85;10.39
1926;BME280;964;42.606;23.588;2023-02-19T09:14:34;94818.28;;;47.20;10.01
1926;BME280;964;42.606;23.588;2023-02-19T09:17:02;94817.00;;;47.40;9.98
1926;BME280;964;42.606;23.588;2023-02-19T09:19:29;94814.94;;;46.51;11.00
1926;BME280;964;42.606;23.588;2023-02-19T09:21:56;94821.28;;;44.99;11.02
1926;BME280;964;42.606;23.588;2023-02-19T09:24:23;94811.97;;;46.75;10.40
1926;BME280;964;42.606;23.588;2023-02-19T09:26:53;94814.75;;;45.21;10.98
1926;BME280;964;42.606;23.588;2023-02-19T09:29:20;94803.97;;;45.59;10.74
1926;BME280;964;42.606;23.588;2023-02-19T09:31:47;94794.72;;;44.42;11.54
1926;BME280;964;42.606;23.588;2023-02-19T09:34:14;94804.56;;;43.96;11.56
1926;BME280;964;42.606;23.588;2023-02-19T09:36:41;94797.91;;;44.71;11.66
1926;BME280;964;42.606;23.588;2023-02-19T09:39:08;94797.97;;;43.46;12.02
1926;BME280;964;42.606;23.588;2023-02-19T09:41:37;94802.41;;;43.64;11.79
1926;BME280;964;42.606;23.588;2023-02-19T09:44:13;94806.84;;;42.84;12.07
1926;BME280;964;42.606;23.588;2023-02-19T09:46:44;94806.91;;;43.44;11.79
1926;BME280;964;42.606;23.588;2023-02-19T09:49:14;94809.31;;;41.16;13.01
1926;BME280;964;42.606;23.588;2023-02-19T09:51:44;94806.09;;;41.81;12.41
1926;BME280;964;42.606;23.588;2023-02-19T09:54:19;94815.34;;;39.92;13.26
1926;BME280;964;42.606;23.588;2023-02-19T09:56:47;94826.88;;;39.24;14.02
1926;BME280;964;42.606;23.588;2023-02-19T09:59:19;94813.75;;;39.70;13.60
1926;BME280;964;42.606;23.588;2023-02-19T10:01:47;94806.63;;;40.35;13.07
1926;BME280;964;42.606;23.588;2023-02-19T10:04:14;94789.25;;;41.66;12.91
1926;BME280;964;42.606;23.588;2023-02-19T10:06:41;94800.53;;;40.91;13.57
1926;BME280;964;42.606;23.588;2023-02-19T10:09:17;94790.66;;;41.80;13.18
1926;BME280;964;42.606;23.588;2023-02-19T10:11:47;94782.94;;;44.04;12.03
1926;BME280;964;42.606;23.588;2023-02-19T10:14:18;94771.00;;;43.41;12.00
1926;BME280;964;42.606;23.588;2023-02-19T10:16:49;94761.91;;;44.03;11.68
1926;BME280;964;42.606;23.588;2023-02-19T10:19:16;94753.59;;;44.28;11.72
1926;BME280;964;42.606;23.588;2023-02-19T10:21:43;94744.50;;;44.84;11.42
1926;BME280;964;42.606;23.588;2023-02-19T10:24:15;94744.91;;;44.09;12.17
1926;BME280;964;42.606;23.588;2023-02-19T10:26:44;94731.94;;;44.36;11.82
1926;BME280;964;42.606;23.588;2023-02-19T10:29:11;94732.06;;;45.03;11.15
1926;BME280;964;42.606;23.588;2023-02-19T10:31:39;94725.88;;;45.46;11.81
1926;BME280;964;42.606;23.588;2023-02-19T10:34:16;94709.78;;;45.29;11.60
1926;BME280;964;42.606;23.588;2023-02-19T10:36:46;94708.47;;;44.88;11.67
1926;BME280;964;42.606;23.588;2023-02-19T10:42:16;94693.09;;;45.73;11.20
1926;BME280;964;42.606;23.588;2023-02-19T10:44:45;94688.94;;;45.23;11.20
1926;BME280;964;42.606;23.588;2023-02-19T10:47:20;94689.91;;;44.51;12.24
1926;BME280;964;42.606;23.588;2023-02-19T10:49:49;94686.53;;;43.88;12.15
1926;BME280;964;42.606;23.588;2023-02-19T10:52:19;94677.25;;;42.92;12.15
1926;BME280;964;42.606;23.588;2023-02-19T10:54:49;94682.63;;;43.21;11.99
1926;BME280;964;42.606;23.588;2023-02-19T10:57:24;94657.75;;;43.63;12.06
1926;BME280;964;42.606;23.588;2023-02-19T10:59:56;94664.03;;;42.25;12.21
1926;BME280;964;42.606;23.588;2023-02-19T11:02:25;94666.25;;;41.03;13.59
1926;BME280;964;42.606;23.588;2023-02-19T11:05:04;94659.22;;;42.63;12.07
1926;BME280;964;42.606;23.588;2023-02-19T11:07:32;94646.91;;;43.74;12.28
1926;BME280;964;42.606;23.588;2023-02-19T11:09:59;94651.28;;;43.60;12.27
1926;BME280;964;42.606;23.588;2023-02-19T11:12:27;94647.47;;;43.80;11.65
1926;BME280;964;42.606;23.588;2023-02-19T11:14:55;94633.41;;;44.53;11.67
1926;BME280;964;42.606;23.588;2023-02-19T11:17:24;94628.84;;;44.40;11.57
1926;BME280;964;42.606;23.588;2023-02-19T11:19:53;94632.47;;;42.75;12.39
1926;BME280;964;42.606;23.588;2023-02-19T11:22:28;94627.28;;;42.64;13.03
1926;BME280;964;42.606;23.588;2023-02-19T11:25:00;94620.09;;;44.11;11.93
1926;BME280;964;42.606;23.588;2023-02-19T11:27:31;94615.00;;;43.92;11.84
1926;BME280;964;42.606;23.588;2023-02-19T11:30:30;94607.88;;;44.98;11.33
1926;BME280;964;42.606;23.588;2023-02-19T11:33:16;94612.34;;;44.59;11.68
1926;BME280;964;42.606;23.588;2023-02-19T11:35:46;94601.88;;;43.23;11.87
1926;BME280;964;42.606;23.588;2023-02-19T11:38:14;94600.75;;;43.26;12.19
1926;BME280;964;42.606;23.588;2023-02-19T11:40:44;94593.72;;;44.29;11.56
1926;BME280;964;42.606;23.588;2023-02-19T11:43:26;94596.91;;;43.61;11.57
1926;BME280;964;42.606;23.588;2023-02-19T11:46:00;94585.47;;;44.56;11.55
1926;BME280;964;42.606;23.588;2023-02-19T11:48:41;94575.44;;;46.27;10.81
1926;BME280;964;42.606;23.588;2023-02-19T11:51:22;94574.31;;;46.13;11.37
1926;BME280;964;42.606;23.588;2023-02-19T11:54:03;94572.81;;;45.58;11.36
1926;BME280;964;42.606;23.588;2023-02-19T11:56:35;94565.75;;;46.47;11.01
1926;BME280;964;42.606;23.588;2023-02-19T11:59:12;94560.16;;;46.11;10.77
1926;BME280;964;42.606;23.588;2023-02-19T12:02:18;94560.16;;;45.57;11.04
1926;BME280;964;42.606;23.588;2023-02-19T12:05:10;94559.31;;;46.18;11.04
1926;BME280;964;42.606;23.588;2023-02-19T12:08:01;94541.50;;;47.36;9.94
1926;BME280;964;42.606;23.588;2023-02-19T12:10:37;94522.44;;;47.85;10.23
1926;BME280;964;42.606;23.588;2023-02-19T12:13:12;94537.31;;;45.88;11.27
1926;BME280;964;42.606;23.588;2023-02-19T12:15:55;94529.66;;;47.28;10.08
1926;BME280;964;42.606;23.588;2023-02-19T12:18:41;94527.03;;;46.26;11.03
1926;BME280;964;42.606;23.588;2023-02-19T12:21:27;94525.50;;;45.53;11.23
1926;BME280;964;42.606;23.588;2023-02-19T12:24:24;94526.19;;;46.07;11.24
1926;BME280;964;42.606;23.588;2023-02-19T12:27:07;94518.41;;;46.80;10.62
1926;BME280;964;42.606;23.588;2023-02-19T12:29:54;94515.31;;;46.11;11.03
1926;BME280;964;42.606;23.588;2023-02-19T12:32:41;94509.25;;;46.79;10.84
1926;BME280;964;42.606;23.588;2023-02-19T12:35:31;94487.16;;;48.03;10.22
1926;BME280;964;42.606;23.588;2023-02-19T12:38:12;94484.47;;;48.67;10.28
1926;BME280;964;42.606;23.588;2023-02-19T12:40:56;94478.06;;;47.93;9.96
1926;BME280;964;42.606;23.588;2023-02-19T12:43:26;94485.16;;;47.84;10.50
1926;BME280;964;42.606;23.588;2023-02-19T12:45:57;94474.72;;;47.25;10.43
1926;BME280;964;42.606;23.588;2023-02-19T12:48:29;94471.59;;;46.73;10.47
1926;BME280;964;42.606;23.588;2023-02-19T12:51:03;94468.09;;;47.51;9.79
1926;BME280;964;42.606;23.588;2023-02-19T12:53:39;94466.59;;;46.91;10.26
1926;BME280;964;42.606;23.588;2023-02-19T12:56:12;94449.50;;;48.17;9.91
1926;BME280;964;42.606;23.588;2023-02-19T12:58:43;94444.31;;;47.93;10.05
1926;BME280;964;42.606;23.588;2023-02-19T13:01:17;94439.31;;;47.82;10.41
1926;BME280;964;42.606;23.588;2023-02-19T13:03:47;94430.91;;;49.77;9.61
1926;BME280;964;42.606;23.588;2023-02-19T13:06:25;94423.75;;;48.63;9.45
1926;BME280;964;42.606;23.588;2023-02-19T13:08:56;94415.81;;;50.07;9.10
1926;BME280;964;42.606;23.588;2023-02-19T13:11:30;94413.78;;;49.17;9.52
1926;BME280;964;42.606;23.588;2023-02-19T13:14:03;94406.63;;;49.83;9.75
1926;BME280;964;42.606;23.588;2023-02-19T13:16:33;94414.91;;;48.36;9.75
1926;BME280;964;42.606;23.588;2023-02-19T13:19:04;94421.38;;;47.65;10.02
1926;BME280;964;42.606;23.588;2023-02-19T13:21:32;94414.75;;;48.77;9.29
1926;BME280;964;42.606;23.588;2023-02-19T13:24:24;94403.19;;;49.38;9.58
1926;BME280;964;42.606;23.588;2023-02-19T13:27:01;94396.13;;;48.50;9.69
1926;BME280;964;42.606;23.588;2023-02-19T13:29:49;94389.00;;;49.83;9.17
1926;BME280;964;42.606;23.588;2023-02-19T13:32:50;94385.56;;;49.61;9.20
1926;BME280;964;42.606;23.588;2023-02-19T13:35:27;94390.94;;;48.14;9.88
1926;BME280;964;42.606;23.588;2023-02-19T13:38:02;94372.19;;;48.94;9.63
1926;BME280;964;42.606;23.588;2023-02-19T13:40:32;94386.97;;;49.04;9.64
1926;BME280;964;42.606;23.588;2023-02-19T13:43:01;94383.00;;;48.97;9.46
1926;BME280;964;42.606;23.588;2023-02-19T13:45:32;94375.75;;;49.39;9.58
1926;BME280;964;42.606;23.588;2023-02-19T13:48:11;94367.59;;;48.98;9.47
1926;BME280;964;42.606;23.588;2023-02-19T13:50:39;94365.41;;;48.43;9.74